Time;durP1;ratioP1;P1;durP2;ratioP2;P2;SDS_P1;SDS_P2;PMS_P1;PMS_P2;Temp;Humidity;BMP_temperature;BMP_pressure;BME280_temperature;BME280_humidity;BME280_pressure;Samples;Min_cycle;Max_cycle;Signal;HPM_P1;HPM_P2
2023/07/11 00:00:14;;;;;;;;;;;;;;;22.68;66.69;101441.00;4136645;28;20016;-68
2023/07/11 00:02:16;;;;;;;;;;;;;;;22.60;66.76;101433.09;4136335;28;20020;-68
2023/07/11 00:04:19;;;;;;;;;;;;;;;22.60;66.88;101438.59;4136183;28;20650;-67
2023/07/11 00:06:22;;;;;;;;;;;;;;;22.60;66.94;101437.75;4137044;28;20017;-69
2023/07/11 00:08:24;;;;;;;;;;;;;;;22.58;67.00;101432.50;4136195;28;20020;-68
2023/07/11 00:10:26;;;;;;;;;;;;;;;22.54;66.96;101439.56;4136241;28;20020;-69
2023/07/11 00:12:28;;;;;;;;;;;;;;;22.49;67.27;101433.94;4151448;28;20031;-71
2023/07/11 00:14:30;;;;;;;;;;;;;;;22.45;67.38;101432.75;4136449;28;20024;-69
2023/07/11 00:16:34;;;;;;;;;;;;;;;22.44;67.52;101428.31;4136226;28;20355;-69
2023/07/11 00:18:36;;;;;;;;;;;;;;;22.42;67.46;101427.72;4135500;28;20375;-70
2023/07/11 00:20:39;;;;;;;;;;;;;;;22.39;67.75;101425.44;4136772;28;20542;-70
2023/07/11 00:22:42;;;;;;;;;;;;;;;22.35;67.61;101429.75;4136386;28;20417;-70
2023/07/11 00:24:44;;;;;;;;;;;;;;;22.31;67.89;101432.16;4151030;28;19972;-70
2023/07/11 00:26:46;;;;;;;;;;;;;;;22.29;68.18;101429.59;4136622;28;20008;-69
2023/07/11 00:28:47;;;;;;;;;;;;;;;22.28;68.17;101427.09;4135771;28;20417;-69
2023/07/11 00:30:49;;;;;;;;;;;;;;;22.28;68.16;101435.34;4136874;28;19968;-68
2023/07/11 00:32:51;;;;;;;;;;;;;;;22.23;68.38;101429.72;4135816;28;20021;-69
2023/07/11 00:34:53;;;;;;;;;;;;;;;22.18;68.60;101433.19;4136483;28;20020;-67
2023/07/11 00:36:56;;;;;;;;;;;;;;;22.16;68.70;101429.00;4138063;28;20020;-67
2023/07/11 00:38:58;;;;;;;;;;;;;;;22.10;68.54;101434.38;4139169;28;19964;-69
2023/07/11 00:41:00;;;;;;;;;;;;;;;21.96;69.13;101438.41;4153503;28;20586;-68
2023/07/11 00:43:02;;;;;;;;;;;;;;;21.89;69.61;101443.19;4136208;28;20619;-68
2023/07/11 00:45:04;;;;;;;;;;;;;;;21.88;69.68;101436.84;4154692;28;20357;-68
2023/07/11 00:47:06;;;;;;;;;;;;;;;21.92;69.60;101437.22;4139416;28;20000;-69
2023/07/11 00:49:12;;;;;;;;;;;;;;;21.95;69.25;101434.81;4139108;28;20025;-70
2023/07/11 00:51:14;;;;;;;;;;;;;;;21.94;69.31;101433.16;4139133;28;20028;-69
2023/07/11 00:53:17;;;;;;;;;;;;;;;21.90;69.00;101431.94;4138295;28;20019;-68
2023/07/11 00:55:19;;;;;;;;;;;;;;;21.87;69.42;101429.66;4139217;28;20436;-70
2023/07/11 00:57:21;;;;;;;;;;;;;;;21.86;69.50;101435.41;4138699;28;20024;-70
2023/07/11 00:59:24;;;;;;;;;;;;;;;21.83;69.45;101427.63;4138468;28;19933;-70
2023/07/11 01:01:26;;;;;;;;;;;;;;;21.77;69.88;101434.88;4138139;28;20363;-69
2023/07/11 01:03:28;;;;;;;;;;;;;;;21.72;69.96;101426.50;4137884;28;20021;-70
2023/07/11 01:05:30;;;;;;;;;;;;;;;21.65;70.04;101423.88;4137720;28;20024;-69
2023/07/11 01:07:35;;;;;;;;;;;;;;;21.51;70.48;101412.22;4138689;28;20024;-68
2023/07/11 01:09:39;;;;;;;;;;;;;;;21.37;71.01;101416.22;4139537;28;20021;-68
2023/07/11 01:11:52;;;;;;;;;;;;;;;21.33;71.46;101413.09;4153910;28;20004;-70
2023/07/11 01:13:53;;;;;;;;;;;;;;;21.30;71.52;101426.44;4138396;28;20381;-71
2023/07/11 01:15:55;;;;;;;;;;;;;;;21.26;71.75;101425.25;4138709;28;20020;-69
2023/07/11 01:17:57;;;;;;;;;;;;;;;21.21;71.94;101428.69;4153593;28;20012;-70
2023/07/11 01:20:00;;;;;;;;;;;;;;;21.15;72.21;101422.19;4154094;28;19936;-70
2023/07/11 01:22:03;;;;;;;;;;;;;;;21.13;72.21;101426.25;4152735;28;20012;-71
2023/07/11 01:24:06;;;;;;;;;;;;;;;21.10;72.45;101430.31;4154250;28;20596;-70
2023/07/11 01:26:08;;;;;;;;;;;;;;;21.08;72.37;101432.41;4154180;28;20016;-71
2023/07/11 01:28:12;;;;;;;;;;;;;;;21.05;72.83;101427.41;4138391;28;20044;-70
2023/07/11 01:30:15;;;;;;;;;;;;;;;21.04;72.66;101432.06;4137925;28;20364;-69
2023/07/11 01:32:17;;;;;;;;;;;;;;;21.05;72.59;101433.75;4152827;28;20393;-70
2023/07/11 01:34:19;;;;;;;;;;;;;;;21.10;72.20;101434.94;4154012;28;20027;-70
2023/07/11 01:36:20;;;;;;;;;;;;;;;21.14;71.86;101433.41;4154076;28;20020;-69
2023/07/11 01:38:24;;;;;;;;;;;;;;;21.15;71.66;101433.19;4137565;28;19934;-70
2023/07/11 01:40:25;;;;;;;;;;;;;;;21.17;71.42;101427.47;4153772;28;19922;-69
2023/07/11 01:42:28;;;;;;;;;;;;;;;21.19;70.98;101436.31;4137781;28;20016;-69
2023/07/11 01:44:30;;;;;;;;;;;;;;;21.15;71.01;101437.84;4153546;28;20180;-68
2023/07/11 01:46:34;;;;;;;;;;;;;;;21.10;71.20;101432.19;4153537;28;20024;-69
2023/07/11 01:48:36;;;;;;;;;;;;;;;20.96;71.24;101431.53;4137145;28;20012;-70
2023/07/11 01:50:38;;;;;;;;;;;;;;;20.86;71.97;101432.06;4138051;28;20457;-69
2023/07/11 01:52:40;;;;;;;;;;;;;;;20.85;71.95;101430.41;4137511;28;20462;-70
2023/07/11 01:54:44;;;;;;;;;;;;;;;20.83;71.99;101433.38;4138291;28;20021;-69
2023/07/11 01:56:46;;;;;;;;;;;;;;;20.83;72.01;101432.50;4152920;28;20467;-70
2023/07/11 01:58:48;;;;;;;;;;;;;;;20.80;71.73;101433.81;4136705;28;20116;-69
2023/07/11 02:00:52;;;;;;;;;;;;;;;20.74;71.87;101432.00;4138253;28;20005;-70
2023/07/11 02:02:54;;;;;;;;;;;;;;;20.66;72.08;101427.63;4152903;28;20015;-69
2023/07/11 02:04:57;;;;;;;;;;;;;;;20.64;72.26;101437.13;4138434;28;20020;-70
2023/07/11 02:06:58;;;;;;;;;;;;;;;20.58;72.10;101430.66;4137800;28;20009;-68
2023/07/11 02:09:02;;;;;;;;;;;;;;;20.56;72.43;101431.94;4137080;28;20411;-68
2023/07/11 02:11:07;;;;;;;;;;;;;;;20.57;72.41;101422.66;4137937;28;19973;-68
2023/07/11 02:13:09;;;;;;;;;;;;;;;20.58;72.54;101424.31;4152622;28;20032;-71
2023/07/11 02:15:15;;;;;;;;;;;;;;;20.59;72.12;101432.31;4137089;28;20016;-70
2023/07/11 02:17:17;;;;;;;;;;;;;;;20.55;72.26;101425.63;4135871;28;20358;-70
2023/07/11 02:19:20;;;;;;;;;;;;;;;20.50;72.28;101425.44;4136606;28;20029;-70
2023/07/11 02:21:22;;;;;;;;;;;;;;;20.44;72.62;101424.47;4136628;28;20012;-68
2023/07/11 02:23:24;;;;;;;;;;;;;;;20.43;72.60;101422.78;4137569;28;20443;-68
2023/07/11 02:25:26;;;;;;;;;;;;;;;20.38;72.71;101424.53;4136660;28;20020;-69
2023/07/11 02:27:32;;;;;;;;;;;;;;;20.34;73.01;101427.72;4136826;28;20045;-69
2023/07/11 02:29:34;;;;;;;;;;;;;;;20.28;73.12;101427.75;4137008;28;20009;-69
2023/07/11 02:31:37;;;;;;;;;;;;;;;20.23;73.48;101430.34;4137453;28;20050;-68
2023/07/11 02:33:39;;;;;;;;;;;;;;;20.21;73.60;101424.25;4136899;28;20017;-69
2023/07/11 02:35:41;;;;;;;;;;;;;;;20.20;73.79;101437.13;4137779;28;20008;-70
2023/07/11 02:37:43;;;;;;;;;;;;;;;20.19;73.43;101429.97;4137839;28;20020;-69
2023/07/11 02:39:45;;;;;;;;;;;;;;;20.14;73.46;101427.03;4136955;28;20008;-69
2023/07/11 02:41:47;;;;;;;;;;;;;;;20.13;73.48;101425.38;4137312;28;20378;-69
2023/07/11 02:43:50;;;;;;;;;;;;;;;20.09;73.59;101427.72;4137494;28;20040;-69
2023/07/11 02:45:52;;;;;;;;;;;;;;;20.05;73.59;101437.47;4137622;28;20008;-67
2023/07/11 02:47:54;;;;;;;;;;;;;;;20.02;73.76;101439.81;4136741;28;20024;-68
2023/07/11 02:49:56;;;;;;;;;;;;;;;19.99;74.00;101425.47;4137324;28;20016;-69
2023/07/11 02:51:57;;;;;;;;;;;;;;;19.97;74.07;101426.78;4136966;28;20016;-69
2023/07/11 02:53:59;;;;;;;;;;;;;;;20.03;73.95;101433.25;4151605;28;20300;-69
2023/07/11 02:56:01;;;;;;;;;;;;;;;20.05;73.96;101425.66;4137375;28;20016;-69
2023/07/11 02:58:03;;;;;;;;;;;;;;;20.04;73.41;101422.06;4137121;28;20005;-69
2023/07/11 03:00:08;;;;;;;;;;;;;;;19.98;73.52;101423.81;4136873;28;20419;-69
2023/07/11 03:02:10;;;;;;;;;;;;;;;19.95;73.84;101428.88;4137045;28;19929;-69
2023/07/11 03:04:12;;;;;;;;;;;;;;;19.91;73.68;101436.72;4135762;28;20012;-70
2023/07/11 03:06:14;;;;;;;;;;;;;;;19.90;73.87;101429.56;4137436;28;20611;-69
2023/07/11 03:08:16;;;;;;;;;;;;;;;19.89;73.87;101432.50;4136945;28;20032;-69
2023/07/11 03:10:18;;;;;;;;;;;;;;;19.82;73.92;101429.84;4137560;28;20017;-69
2023/07/11 03:12:20;;;;;;;;;;;;;;;19.77;74.29;101427.75;4135862;28;20012;-69
2023/07/11 03:14:23;;;;;;;;;;;;;;;19.75;74.41;101440.81;4137074;28;20012;-69
2023/07/11 03:16:26;;;;;;;;;;;;;;;19.71;74.26;101436.81;4136968;28;20032;-70
2023/07/11 03:18:28;;;;;;;;;;;;;;;19.71;74.55;101434.09;4136924;28;20004;-69
2023/07/11 03:20:30;;;;;;;;;;;;;;;19.71;74.45;101445.06;4136343;28;20024;-69
2023/07/11 03:22:32;;;;;;;;;;;;;;;19.66;74.50;101442.13;4136969;28;19921;-69
2023/07/11 03:24:34;;;;;;;;;;;;;;;19.59;74.64;101438.59;4137154;28;20016;-69
2023/07/11 03:26:36;;;;;;;;;;;;;;;19.55;75.19;101438.19;4137134;28;20021;-69
2023/07/11 03:28:38;;;;;;;;;;;;;;;19.50;75.45;101443.50;4136005;28;20020;-69
2023/07/11 03:30:40;;;;;;;;;;;;;;;19.48;75.86;101437.38;4136978;28;20028;-70
2023/07/11 03:32:43;;;;;;;;;;;;;;;19.51;76.13;101444.34;4136024;28;20451;-69
2023/07/11 03:34:45;;;;;;;;;;;;;;;19.54;75.85;101444.72;4137011;28;20008;-67
2023/07/11 03:36:47;;;;;;;;;;;;;;;19.62;75.47;101447.22;4136411;28;20379;-69
2023/07/11 03:38:49;;;;;;;;;;;;;;;19.64;75.41;101455.22;4136985;28;20424;-70
2023/07/11 03:40:50;;;;;;;;;;;;;;;19.64;75.53;101447.00;4136591;28;20036;-69
2023/07/11 03:42:52;;;;;;;;;;;;;;;19.63;75.62;101450.81;4136430;28;19925;-67
2023/07/11 03:44:53;;;;;;;;;;;;;;;19.58;75.78;101453.38;4136448;28;20016;-68
2023/07/11 03:46:55;;;;;;;;;;;;;;;19.55;76.06;101457.38;4137159;28;19926;-69
2023/07/11 03:49:00;;;;;;;;;;;;;;;19.51;76.21;101452.56;4136646;28;20348;-69
2023/07/11 03:51:02;;;;;;;;;;;;;;;19.47;76.44;101460.38;4136748;28;20067;-70
2023/07/11 03:53:04;;;;;;;;;;;;;;;19.45;76.99;101462.47;4136540;28;20012;-69
2023/07/11 03:55:06;;;;;;;;;;;;;;;19.43;76.84;101459.94;4136989;28;20040;-69
2023/07/11 03:57:08;;;;;;;;;;;;;;;19.44;76.66;101466.28;4136378;28;20008;-68
2023/07/11 03:59:10;;;;;;;;;;;;;;;19.45;76.44;101462.47;4137179;28;20071;-69
2023/07/11 04:01:12;;;;;;;;;;;;;;;19.45;76.19;101463.34;4135787;28;20439;-69
2023/07/11 04:03:14;;;;;;;;;;;;;;;19.48;76.14;101472.16;4136635;28;20013;-70
2023/07/11 04:05:17;;;;;;;;;;;;;;;19.47;76.18;101463.13;4135413;28;20008;-69
2023/07/11 04:07:19;;;;;;;;;;;;;;;19.47;76.23;101465.00;4136315;28;20048;-70
2023/07/11 04:09:21;;;;;;;;;;;;;;;19.45;75.99;101467.94;4136442;28;20016;-68
2023/07/11 04:11:23;;;;;;;;;;;;;;;19.46;76.19;101464.16;4136125;28;20020;-69
2023/07/11 04:13:25;;;;;;;;;;;;;;;19.46;76.65;101461.44;4138932;28;20032;-69
2023/07/11 04:15:27;;;;;;;;;;;;;;;19.49;76.52;101461.00;4139359;28;20004;-67
2023/07/11 04:17:29;;;;;;;;;;;;;;;19.50;76.09;101457.19;4155147;28;20019;-69
2023/07/11 04:19:31;;;;;;;;;;;;;;;19.50;75.81;101454.47;4139808;28;20012;-68
2023/07/11 04:21:34;;;;;;;;;;;;;;;19.50;75.87;101454.47;4139425;28;20036;-66
2023/07/11 04:23:36;;;;;;;;;;;;;;;19.49;75.79;101450.03;4153761;28;20020;-68
2023/07/11 04:25:38;;;;;;;;;;;;;;;19.49;76.03;101450.03;4154270;28;20020;-70
2023/07/11 04:27:40;;;;;;;;;;;;;;;19.51;75.71;101441.59;4138727;28;20020;-69
2023/07/11 04:29:42;;;;;;;;;;;;;;;19.52;75.86;101448.75;4138954;28;20016;-69
2023/07/11 04:31:44;;;;;;;;;;;;;;;19.54;76.05;101455.69;4138961;28;20032;-69
2023/07/11 04:33:46;;;;;;;;;;;;;;;19.56;76.13;101452.72;4138723;28;20008;-70
2023/07/11 04:35:48;;;;;;;;;;;;;;;19.56;76.14;101447.25;4138796;28;20019;-70
2023/07/11 04:37:51;;;;;;;;;;;;;;;19.57;76.36;101449.78;4138692;28;20032;-68
2023/07/11 04:39:53;;;;;;;;;;;;;;;19.60;76.23;101448.50;4139117;28;20008;-70
2023/07/11 04:41:55;;;;;;;;;;;;;;;19.63;76.22;101443.41;4139206;28;20024;-69
2023/07/11 04:43:57;;;;;;;;;;;;;;;19.67;76.15;101456.66;4137678;28;20020;-69
2023/07/11 04:45:59;;;;;;;;;;;;;;;19.72;76.42;101454.13;4139216;28;20097;-69
2023/07/11 04:48:01;;;;;;;;;;;;;;;19.74;76.25;101447.34;4138833;28;20016;-69
2023/07/11 04:50:03;;;;;;;;;;;;;;;19.79;76.73;101454.94;4137091;28;20004;-69
2023/07/11 04:52:05;;;;;;;;;;;;;;;19.81;76.45;101450.06;4138876;28;20008;-70
2023/07/11 04:54:08;;;;;;;;;;;;;;;19.86;76.62;101447.53;4138950;28;20005;-69
2023/07/11 04:56:11;;;;;;;;;;;;;;;19.91;76.77;101435.91;4138690;28;20055;-69
2023/07/11 04:58:13;;;;;;;;;;;;;;;19.95;76.79;101435.22;4137866;28;20372;-68
2023/07/11 05:00:15;;;;;;;;;;;;;;;19.98;76.99;101434.78;4137983;28;20040;-69
2023/07/11 05:02:17;;;;;;;;;;;;;;;20.02;76.95;101435.16;4138120;28;20040;-69
2023/07/11 05:04:19;;;;;;;;;;;;;;;20.07;77.23;101432.59;4137967;28;19926;-70
2023/07/11 05:06:21;;;;;;;;;;;;;;;20.14;77.37;101429.78;4137465;28;20021;-68
2023/07/11 05:08:22;;;;;;;;;;;;;;;20.20;77.51;101439.84;4137372;28;20052;-69
2023/07/11 05:10:25;;;;;;;;;;;;;;;20.25;77.40;101433.69;4137617;28;20315;-69
2023/07/11 05:12:27;;;;;;;;;;;;;;;20.31;77.52;101427.31;4137347;28;20004;-69
2023/07/11 05:14:29;;;;;;;;;;;;;;;20.36;77.55;101424.75;4138164;28;20040;-69
2023/07/11 05:16:31;;;;;;;;;;;;;;;20.43;77.92;101425.50;4138574;28;20052;-70
2023/07/11 05:18:34;;;;;;;;;;;;;;;20.50;77.93;101426.31;4137758;28;20347;-68
2023/07/11 05:20:36;;;;;;;;;;;;;;;20.58;77.88;101425.16;4137562;28;20008;-68
2023/07/11 05:22:38;;;;;;;;;;;;;;;20.65;77.18;101425.13;4137880;28;20052;-67
2023/07/11 05:24:40;;;;;;;;;;;;;;;20.71;77.18;101429.69;4137608;28;19928;-67
2023/07/11 05:26:44;;;;;;;;;;;;;;;20.78;76.44;101430.44;4138478;28;20017;-69
2023/07/11 05:28:46;;;;;;;;;;;;;;;20.83;76.27;101422.38;4136999;28;20012;-67
2023/07/11 05:30:48;;;;;;;;;;;;;;;20.91;75.90;101425.88;4138236;28;20090;-67
2023/07/11 05:32:50;;;;;;;;;;;;;;;20.95;75.48;101424.38;4137636;28;20011;-67
2023/07/11 05:34:52;;;;;;;;;;;;;;;21.00;74.78;101416.25;4137341;28;20368;-67
2023/07/11 05:36:54;;;;;;;;;;;;;;;21.03;74.59;101416.66;4136479;28;19972;-68
2023/07/11 05:38:56;;;;;;;;;;;;;;;21.09;74.32;101422.28;4137888;28;20005;-67
2023/07/11 05:40:58;;;;;;;;;;;;;;;21.13;73.09;101421.59;4137901;28;20010;-68
2023/07/11 05:43:01;;;;;;;;;;;;;;;21.16;71.88;101415.66;4137403;28;20029;-67
2023/07/11 05:45:03;;;;;;;;;;;;;;;21.20;71.93;101421.50;4137941;28;20028;-67
2023/07/11 05:47:05;;;;;;;;;;;;;;;21.23;71.33;101413.63;4137096;28;20021;-70
2023/07/11 05:49:07;;;;;;;;;;;;;;;21.26;70.62;101411.50;4136975;28;20662;-69
2023/07/11 05:51:11;;;;;;;;;;;;;;;21.28;70.91;101412.94;4137468;28;20012;-71
2023/07/11 05:53:12;;;;;;;;;;;;;;;21.34;70.98;101411.19;4137546;28;20002;-68
2023/07/11 05:55:14;;;;;;;;;;;;;;;21.39;70.55;101406.69;4137513;28;20076;-68
2023/07/11 05:57:16;;;;;;;;;;;;;;;21.44;69.44;101403.19;4136868;28;20451;-68
2023/07/11 05:59:20;;;;;;;;;;;;;;;21.50;68.99;101401.47;4136830;28;20714;-68
2023/07/11 06:01:22;;;;;;;;;;;;;;;21.52;67.84;101405.69;4136516;28;20036;-69
2023/07/11 06:03:25;;;;;;;;;;;;;;;21.58;67.68;101406.63;4137501;28;20016;-69
2023/07/11 06:05:27;;;;;;;;;;;;;;;21.62;67.21;101407.84;4137181;28;19925;-68
2023/07/11 06:07:29;;;;;;;;;;;;;;;21.66;66.85;101402.72;4133866;28;20016;-69
2023/07/11 06:09:31;;;;;;;;;;;;;;;21.71;66.67;101395.44;4133329;28;20025;-69
2023/07/11 06:11:32;;;;;;;;;;;;;;;21.75;65.80;101402.13;4136052;28;20052;-68
2023/07/11 06:13:34;;;;;;;;;;;;;;;21.78;65.46;101395.34;4135418;28;20452;-68
2023/07/11 06:15:38;;;;;;;;;;;;;;;21.81;64.56;101394.03;4137309;28;20474;-71
2023/07/11 06:17:39;;;;;;;;;;;;;;;21.82;64.50;101384.69;4137470;28;20020;-72
2023/07/11 06:19:41;;;;;;;;;;;;;;;21.87;64.58;101379.34;4136594;28;20439;-73
2023/07/11 06:21:44;;;;;;;;;;;;;;;21.88;63.80;101386.50;4136828;28;20375;-72
2023/07/11 06:23:47;;;;;;;;;;;;;;;21.92;64.21;101391.28;4136763;28;20029;-73
2023/07/11 06:26:03;;;;;;;;;;;;;;;21.96;64.24;101387.00;4135697;28;20479;-72
2023/07/11 06:28:04;;;;;;;;;;;;;;;22.02;64.26;101387.13;4137427;28;20004;-72
2023/07/11 06:30:07;;;;;;;;;;;;;;;22.07;64.35;101396.34;4136622;28;19947;-73
2023/07/11 06:32:11;;;;;;;;;;;;;;;22.12;64.45;101385.44;4151688;28;20011;-73
2023/07/11 06:34:13;;;;;;;;;;;;;;;22.17;64.29;101381.97;4136916;28;20012;-73
2023/07/11 06:36:15;;;;;;;;;;;;;;;22.20;64.10;101383.44;4134573;28;20367;-74
2023/07/11 06:38:16;;;;;;;;;;;;;;;22.22;64.10;101392.28;4135754;28;20013;-74
2023/07/11 06:40:28;;;;;;;;;;;;;;;22.25;64.25;101392.63;4135961;28;20008;-73
2023/07/11 06:42:31;;;;;;;;;;;;;;;22.30;64.36;101394.69;4136184;28;21158;-72
2023/07/11 06:44:37;;;;;;;;;;;;;;;22.33;64.40;101396.13;4137074;28;20036;-72
2023/07/11 06:46:42;;;;;;;;;;;;;;;22.38;63.65;101391.59;4137339;28;19930;-72
2023/07/11 06:48:48;;;;;;;;;;;;;;;22.34;63.38;101389.56;4136747;28;20017;-73
2023/07/11 06:50:55;;;;;;;;;;;;;;;22.34;63.41;101389.56;4136350;28;20021;-72
2023/07/11 06:53:03;;;;;;;;;;;;;;;22.38;63.46;101390.75;4136668;28;20021;-72
2023/07/11 06:55:17;;;;;;;;;;;;;;;22.42;63.22;101387.25;4137224;28;20004;-73
2023/07/11 06:57:22;;;;;;;;;;;;;;;22.42;62.63;101387.25;4136898;28;20467;-72
2023/07/11 06:59:24;;;;;;;;;;;;;;;22.43;62.17;101388.09;4132733;28;20044;-72
2023/07/11 07:01:26;;;;;;;;;;;;;;;22.45;62.09;101384.03;4133670;28;20032;-73
2023/07/11 07:03:28;;;;;;;;;;;;;;;22.49;62.20;101385.25;4133411;28;20013;-72
2023/07/11 07:05:32;;;;;;;;;;;;;;;22.53;62.03;101382.84;4133475;28;20407;-71
2023/07/11 07:07:34;;;;;;;;;;;;;;;22.56;61.67;101379.59;4132817;28;19925;-74
2023/07/11 07:09:36;;;;;;;;;;;;;;;22.59;61.88;101386.53;4133450;28;20012;-73
2023/07/11 07:11:41;;;;;;;;;;;;;;;22.61;61.38;101385.22;4133543;28;20012;-71
2023/07/11 07:13:43;;;;;;;;;;;;;;;22.65;61.19;101386.41;4133269;28;20016;-73
2023/07/11 07:15:46;;;;;;;;;;;;;;;22.69;61.14;101381.25;4133603;28;20016;-73
2023/07/11 07:17:48;;;;;;;;;;;;;;;22.71;60.61;101375.50;4133136;28;20745;-72
2023/07/11 07:19:50;;;;;;;;;;;;;;;22.73;59.85;101367.81;4133334;28;20016;-73
2023/07/11 07:21:54;;;;;;;;;;;;;;;22.75;60.05;101382.19;4134103;28;19968;-73
2023/07/11 07:23:56;;;;;;;;;;;;;;;22.80;60.12;101368.53;4132689;28;19996;-73
2023/07/11 07:25:58;;;;;;;;;;;;;;;22.80;59.80;101372.09;4133941;28;20013;-66
2023/07/11 07:28:00;;;;;;;;;;;;;;;22.87;59.49;101372.00;4133949;28;20810;-64
2023/07/11 07:30:03;;;;;;;;;;;;;;;22.91;59.33;101375.09;4134631;28;20016;-66
2023/07/11 07:32:06;;;;;;;;;;;;;;;22.93;58.88;101367.41;4135708;28;20045;-65
2023/07/11 07:34:08;;;;;;;;;;;;;;;22.95;58.91;101368.03;4135992;28;20699;-64
2023/07/11 07:36:14;;;;;;;;;;;;;;;22.97;58.98;101360.34;4136921;28;20405;-65
2023/07/11 07:38:17;;;;;;;;;;;;;;;22.98;58.60;101365.59;4136619;28;20000;-65
2023/07/11 07:40:19;;;;;;;;;;;;;;;23.00;57.69;101365.38;4135277;28;20029;-65
2023/07/11 07:42:21;;;;;;;;;;;;;;;23.01;57.81;101359.59;4135590;28;20032;-66
2023/07/11 07:44:23;;;;;;;;;;;;;;;23.04;57.66;101356.38;4137138;28;20025;-65
2023/07/11 07:46:25;;;;;;;;;;;;;;;23.08;57.69;101351.22;4136823;28;20003;-66
2023/07/11 07:48:27;;;;;;;;;;;;;;;23.11;56.63;101355.41;4139460;28;20418;-65
2023/07/11 07:50:29;;;;;;;;;;;;;;;23.13;56.73;101353.25;4138985;28;20036;-65
2023/07/11 07:52:31;;;;;;;;;;;;;;;23.15;56.79;101353.81;4139381;28;20025;-65
2023/07/11 07:54:35;;;;;;;;;;;;;;;23.19;57.00;101350.31;4139588;28;20383;-66
2023/07/11 07:56:37;;;;;;;;;;;;;;;23.21;56.65;101355.59;4140142;28;20447;-65
2023/07/11 07:58:39;;;;;;;;;;;;;;;23.23;56.50;101355.34;4135934;28;20000;-65
2023/07/11 08:00:41;;;;;;;;;;;;;;;23.25;56.25;101356.78;4133691;28;20397;-66
2023/07/11 08:02:44;;;;;;;;;;;;;;;23.26;55.68;101344.69;4134406;28;20004;-64
2023/07/11 08:04:47;;;;;;;;;;;;;;;23.25;55.85;101340.25;4135351;28;20020;-64
2023/07/11 08:06:49;;;;;;;;;;;;;;;23.31;55.55;101349.44;4137277;28;20036;-64
2023/07/11 08:08:51;;;;;;;;;;;;;;;23.32;55.08;101343.69;4137535;28;20463;-65
2023/07/11 08:10:55;;;;;;;;;;;;;;;23.34;54.53;101346.19;4133950;28;20455;-71
2023/07/11 08:12:57;;;;;;;;;;;;;;;23.35;55.27;101334.94;4134931;28;20024;-68
2023/07/11 08:14:59;;;;;;;;;;;;;;;23.41;55.04;101337.78;4137595;28;20332;-67
2023/07/11 08:17:01;;;;;;;;;;;;;;;23.44;54.72;101331.75;4137964;28;20328;-68
2023/07/11 08:19:04;;;;;;;;;;;;;;;23.48;53.26;101341.19;4132024;28;20009;-70
2023/07/11 08:21:06;;;;;;;;;;;;;;;23.46;52.45;101338.69;4136726;28;20042;-67
2023/07/11 08:23:16;;;;;;;;;;;;;;;23.44;52.00;101337.28;4137096;28;20008;-68
2023/07/11 08:25:27;;;;;;;;;;;;;;;23.42;52.00;101332.00;4138563;28;20363;-69
2023/07/11 08:27:31;;;;;;;;;;;;;;;23.43;52.41;101330.91;4152936;28;20011;-67
2023/07/11 08:29:33;;;;;;;;;;;;;;;23.48;52.90;101327.41;4139048;28;20016;-67
2023/07/11 08:31:38;;;;;;;;;;;;;;;23.51;53.41;101326.91;4138991;28;20215;-67
2023/07/11 08:33:43;;;;;;;;;;;;;;;23.55;52.87;101322.56;4138262;28;20028;-68
2023/07/11 08:35:58;;;;;;;;;;;;;;;23.57;51.80;101320.41;4138911;28;20024;-69
2023/07/11 08:38:10;;;;;;;;;;;;;;;23.59;50.54;101318.25;4139163;28;20016;-67
2023/07/11 08:40:17;;;;;;;;;;;;;;;23.62;50.53;101323.25;4139369;28;20021;-68
2023/07/11 08:42:22;;;;;;;;;;;;;;;23.61;49.31;101316.06;4138633;28;20012;-68
2023/07/11 08:44:32;;;;;;;;;;;;;;;23.63;50.28;101311.13;4138767;28;20019;-69
2023/07/11 08:46:41;;;;;;;;;;;;;;;23.66;50.13;101307.88;4139175;28;20064;-67
2023/07/11 08:48:44;;;;;;;;;;;;;;;23.69;51.35;101312.06;4139491;28;20000;-68
2023/07/11 08:50:53;;;;;;;;;;;;;;;23.70;49.64;101305.47;4137183;28;20016;-69
2023/07/11 08:53:01;;;;;;;;;;;;;;;23.72;50.02;101304.09;4138768;28;20008;-70
2023/07/11 08:55:10;;;;;;;;;;;;;;;23.77;49.81;101300.59;4139051;28;20036;-71
2023/07/11 08:57:18;;;;;;;;;;;;;;;23.79;50.76;101303.94;4138572;28;20032;-68
2023/07/11 08:59:29;;;;;;;;;;;;;;;23.82;51.48;101286.06;4136919;28;20033;-68
2023/07/11 09:01:36;;;;;;;;;;;;;;;23.85;50.68;101288.34;4119904;28;20040;-70
2023/07/11 09:03:44;;;;;;;;;;;;;;;23.90;49.31;101291.16;4133280;28;20028;-67
2023/07/11 09:05:48;;;;;;;;;;;;;;;23.90;47.69;101283.75;4119222;28;20050;-70
2023/07/11 09:07:57;;;;;;;;;;;;;;;23.89;47.83;101279.31;4122619;28;19981;-68
2023/07/11 09:09:59;;;;;;;;;;;;;;;23.93;49.63;101283.22;4137073;28;20021;-68
2023/07/11 09:12:15;;;;;;;;;;;;;;;23.95;49.66;101280.22;4137397;28;19922;-68
2023/07/11 09:14:29;;;;;;;;;;;;;;;23.97;48.82;101271.69;4136570;28;20032;-69
2023/07/11 09:16:37;;;;;;;;;;;;;;;23.97;48.43;101264.25;4137752;28;20013;-68
2023/07/11 09:18:42;;;;;;;;;;;;;;;23.99;48.67;101272.25;4137897;28;20442;-68
2023/07/11 09:20:46;;;;;;;;;;;;;;;24.01;48.02;101268.19;4137518;28;20019;-68
2023/07/11 09:22:49;;;;;;;;;;;;;;;24.04;48.02;101258.53;4136127;28;20020;-68
2023/07/11 09:24:52;;;;;;;;;;;;;;;24.06;48.81;101268.25;4138406;28;20425;-69
2023/07/11 09:26:54;;;;;;;;;;;;;;;24.09;48.39;101262.22;4137558;28;20004;-68
2023/07/11 09:28:59;;;;;;;;;;;;;;;24.09;48.08;101262.22;4138530;28;20025;-68
2023/07/11 09:31:02;;;;;;;;;;;;;;;24.13;48.77;101264.47;4137536;28;20024;-69
2023/07/11 09:33:17;;;;;;;;;;;;;;;24.17;49.63;101257.31;4137926;28;19922;-68
2023/07/11 09:35:24;;;;;;;;;;;;;;;24.21;48.94;101258.50;4136835;28;20190;-68
2023/07/11 09:37:27;;;;;;;;;;;;;;;24.24;48.50;101252.47;4137399;28;20363;-68
2023/07/11 09:39:30;;;;;;;;;;;;;;;24.26;49.25;101255.78;4137529;28;20137;-69
2023/07/11 09:41:34;;;;;;;;;;;;;;;24.26;49.49;101255.78;4138329;28;20839;-69
2023/07/11 09:43:38;;;;;;;;;;;;;;;24.28;49.78;101251.69;4137659;28;20020;-68
2023/07/11 09:45:46;;;;;;;;;;;;;;;24.30;49.58;101245.91;4138476;28;20020;-69
2023/07/11 09:47:58;;;;;;;;;;;;;;;24.32;49.89;101254.75;4138253;28;20016;-68
2023/07/11 09:50:17;;;;;;;;;;;;;;;24.36;50.06;101250.41;4138001;28;20032;-69
2023/07/11 09:52:21;;;;;;;;;;;;;;;24.40;49.12;101257.06;4138075;28;20019;-69
2023/07/11 09:54:26;;;;;;;;;;;;;;;24.43;48.96;101259.31;4137423;28;20819;-67
2023/07/11 09:56:28;;;;;;;;;;;;;;;24.43;48.65;101245.50;4137725;28;20025;-67
2023/07/11 09:58:32;;;;;;;;;;;;;;;24.43;49.16;101242.75;4137671;28;19993;-68
2023/07/11 10:00:36;;;;;;;;;;;;;;;24.44;49.51;101241.66;4136753;28;20008;-70
2023/07/11 10:02:47;;;;;;;;;;;;;;;24.47;48.00;101240.31;4134656;28;20020;-71
2023/07/11 10:04:51;;;;;;;;;;;;;;;24.47;48.31;101227.34;4123751;28;20465;-68
2023/07/11 10:06:55;;;;;;;;;;;;;;;24.47;48.83;101224.59;4117598;28;19926;-70
2023/07/11 10:09:00;;;;;;;;;;;;;;;24.47;48.29;101218.25;4123282;28;20056;-67
2023/07/11 10:11:03;;;;;;;;;;;;;;;24.51;49.42;101216.63;4118050;28;20063;-68
2023/07/11 10:13:15;;;;;;;;;;;;;;;24.53;49.30;101208.91;4133712;28;20016;-67
2023/07/11 10:15:18;;;;;;;;;;;;;;;24.57;48.81;101207.31;4137944;28;19961;-67
2023/07/11 10:17:21;;;;;;;;;;;;;;;24.59;48.91;101210.69;4137383;28;20020;-68
2023/07/11 10:19:23;;;;;;;;;;;;;;;24.61;48.36;101202.97;4137001;28;20393;-68
2023/07/11 10:21:27;;;;;;;;;;;;;;;24.64;48.83;101202.44;4137976;28;20020;-69
2023/07/11 10:23:30;;;;;;;;;;;;;;;24.69;48.87;101211.88;4137894;28;20370;-69
2023/07/11 10:25:38;;;;;;;;;;;;;;;24.72;47.97;101203.91;4138487;28;20016;-68
2023/07/11 10:27:47;;;;;;;;;;;;;;;24.73;47.58;101208.31;4137728;28;20040;-68
2023/07/11 10:29:51;;;;;;;;;;;;;;;24.75;47.93;101199.75;4136701;28;20012;-68
2023/07/11 10:31:54;;;;;;;;;;;;;;;24.75;48.30;101184.06;4136695;28;20017;-69